Bryant AAF Airport Airport (FRN)

 

Airport Diagram
Current Weather/Forecast (VFR Conditions)
METAR PAFR 100528Z AUTO 03003KT 9SM -RA SCT023 16/13 A2969 RMK AO2 RAB11E17RAB28 SLP060
TAF

All Charts

Inbound Traffic (Arrivals)

No inbound traffic.


Outbound Traffic (Departures)

No outbound traffic.